Time;durP1;ratioP1;P1;durP2;ratioP2;P2;SDS_P1;SDS_P2;PMS_P1;PMS_P2;Temp;Humidity;BMP_temperature;BMP_pressure;BME280_temperature;BME280_humidity;BME280_pressure;Samples;Min_cycle;Max_cycle;Signal;HPM_P1;HPM_P2
2022/02/09 00:02:06;;;;;;;11.87;7.40;;;9.50;99.90;;;;;;5081997;28;20470;-42
2022/02/09 00:04:41;;;;;;;11.20;6.93;;;9.50;99.90;;;;;;5082482;28;20431;-45
2022/02/09 00:07:11;;;;;;;12.47;6.57;;;9.60;99.90;;;;;;5081658;28;20771;-46
2022/02/09 00:09:41;;;;;;;9.43;5.63;;;9.60;99.90;;;;;;5082463;28;20438;-45
2022/02/09 00:12:16;;;;;;;10.93;6.70;;;9.60;99.90;;;;;;5082593;28;20520;-42
2022/02/09 00:14:52;;;;;;;14.20;8.50;;;9.50;99.90;;;;;;5082572;28;20928;-48
2022/02/09 00:17:34;;;;;;;11.90;6.70;;;9.60;99.90;;;;;;5082143;28;20489;-45
2022/02/09 00:20:45;;;;;;;10.60;5.20;;;9.60;99.90;;;;;;5082023;28;20435;-46
2022/02/09 00:34:54;;;;;;;13.20;7.37;;;9.60;99.90;;;;;;5080605;28;20745;-44
2022/02/09 00:37:37;;;;;;;11.87;7.30;;;9.50;99.90;;;;;;5080967;28;20490;-45
2022/02/09 00:40:27;;;;;;;13.33;7.60;;;9.50;99.90;;;;;;5080656;28;20458;-45
2022/02/09 01:38:16;;;;;;;14.53;6.60;;;9.40;99.90;;;;;;5081108;28;20410;-42
2022/02/09 01:41:37;;;;;;;11.60;6.17;;;9.40;99.90;;;;;;5080725;28;20485;-45
2022/02/09 01:57:29;;;;;;;16.07;8.27;;;9.40;99.90;;;;;;5084473;28;20413;-44
2022/02/09 01:59:57;;;;;;;10.37;6.90;;;9.50;99.90;;;;;;5084800;28;20449;-46
2022/02/09 02:02:24;;;;;;;14.23;7.20;;;9.50;99.90;;;;;;5084718;28;20494;-45
2022/02/09 02:04:51;;;;;;;11.87;7.37;;;9.50;99.90;;;;;;5084692;28;20445;-45
2022/02/09 02:07:28;;;;;;;10.33;6.73;;;9.50;99.90;;;;;;5084644;28;20934;-41
2022/02/09 02:10:01;;;;;;;13.33;7.60;;;9.50;99.90;;;;;;5084879;28;20436;-41
2022/02/09 02:12:30;;;;;;;17.60;8.27;;;9.50;99.90;;;;;;5084396;28;20552;-44
2022/02/09 02:15:04;;;;;;;12.20;6.50;;;9.50;99.90;;;;;;5085058;28;20486;-44
2022/02/09 02:17:38;;;;;;;15.07;7.70;;;9.50;99.90;;;;;;5084890;28;20420;-41
2022/02/09 02:20:22;;;;;;;13.67;8.40;;;9.50;99.90;;;;;;5084582;28;20439;-47
2022/02/09 02:23:16;;;;;;;11.00;6.17;;;9.40;99.90;;;;;;5084385;28;20565;-41
2022/02/09 02:25:59;;;;;;;12.20;6.30;;;9.40;99.90;;;;;;5083781;28;20452;-45
2022/02/09 02:28:49;;;;;;;14.23;7.70;;;9.40;99.90;;;;;;5084417;28;20492;-43
2022/02/09 02:31:38;;;;;;;11.87;6.87;;;9.40;99.90;;;;;;5084516;28;20456;-44
2022/02/09 02:34:35;;;;;;;9.43;6.23;;;9.40;99.90;;;;;;5085524;28;20428;-46
2022/02/09 02:37:18;;;;;;;11.70;6.87;;;9.40;99.90;;;;;;5085250;28;20430;-40
2022/02/09 03:10:16;;;;;;;9.20;5.77;;;9.40;99.90;;;;;;5084215;28;20439;-46
2022/02/09 03:12:54;;;;;;;9.20;5.57;;;9.40;99.90;;;;;;5082967;28;20449;-47
2022/02/09 03:15:32;;;;;;;9.40;5.43;;;9.40;99.90;;;;;;5083396;28;20473;-43
2022/02/09 03:18:31;;;;;;;8.83;5.37;;;9.50;99.90;;;;;;5083648;28;20549;-46
2022/02/09 03:20:54;;;;;;;7.63;5.60;;;9.40;99.90;;;;;;5082617;28;20779;-41
2022/02/09 03:23:40;;;;;;;6.20;5.20;;;9.40;99.90;;;;;;5083044;28;20466;-43
2022/02/09 03:26:29;;;;;;;9.00;5.77;;;9.50;99.90;;;;;;5083366;28;20485;-50
2022/02/09 03:42:51;;;;;;;9.87;5.93;;;9.50;99.90;;;;;;5083637;28;20489;-46
2022/02/09 03:48:30;;;;;;;10.87;6.53;;;9.40;99.90;;;;;;5026489;28;20493;-41
2022/02/09 03:51:16;;;;;;;9.77;6.70;;;9.40;99.90;;;;;;5083423;28;20520;-40
2022/02/09 03:53:56;;;;;;;11.63;6.97;;;9.50;99.90;;;;;;5084342;28;20511;-43
2022/02/09 03:56:30;;;;;;;10.30;6.90;;;9.50;99.90;;;;;;5084260;28;20522;-50
2022/02/09 03:58:56;;;;;;;15.77;8.80;;;9.50;99.90;;;;;;5083556;28;20463;-47
2022/02/09 04:01:30;;;;;;;8.97;6.27;;;9.50;99.90;;;;;;5080825;28;20506;-44
2022/02/09 04:03:56;;;;;;;10.40;7.40;;;9.50;99.90;;;;;;5078600;28;20489;-43
2022/02/09 04:06:23;;;;;;;13.03;8.40;;;9.50;99.90;;;;;;5077707;28;20482;-45
2022/02/09 04:08:54;;;;;;;15.37;9.00;;;9.50;99.90;;;;;;5078581;28;20844;-46
2022/02/09 04:11:26;;;;;;;12.70;7.73;;;9.50;99.90;;;;;;5078539;28;20469;-45
2022/02/09 04:14:02;;;;;;;12.47;8.00;;;9.50;99.90;;;;;;5078347;28;20537;-48
2022/02/09 04:16:42;;;;;;;15.17;10.27;;;9.50;99.90;;;;;;5078101;28;20469;-48
2022/02/09 04:19:20;;;;;;;14.40;8.90;;;9.60;99.90;;;;;;5078379;28;20444;-44
2022/02/09 04:38:32;;;;;;;13.37;9.20;;;9.50;99.90;;;;;;5078418;28;20449;-45
2022/02/09 04:44:00;;;;;;;10.27;7.77;;;9.50;99.90;;;;;;5051713;28;20453;-43
2022/02/09 04:52:20;;;;;;;14.47;8.60;;;9.60;99.90;;;;;;5075249;28;20524;-46
2022/02/09 04:54:51;;;;;;;12.27;8.50;;;9.60;99.90;;;;;;5077430;28;20475;-45
2022/02/09 04:57:30;;;;;;;14.83;8.90;;;9.60;99.90;;;;;;5078030;28;20435;-44
2022/02/09 05:00:11;;;;;;;11.20;7.40;;;9.50;99.90;;;;;;5078415;28;20470;-49
2022/02/09 05:03:03;;;;;;;10.67;7.23;;;9.60;99.90;;;;;;5077970;28;20490;-47
2022/02/09 05:22:21;;;;;;;9.33;6.87;;;9.50;99.90;;;;;;5081664;28;20545;-49
2022/02/09 05:25:01;;;;;;;8.97;6.13;;;9.50;99.90;;;;;;5082196;28;20508;-47
2022/02/09 05:27:47;;;;;;;7.73;5.70;;;9.60;99.90;;;;;;5081203;28;20535;-45
2022/02/09 05:30:13;;;;;;;8.63;5.97;;;9.60;99.90;;;;;;5081574;28;20960;-45
2022/02/09 05:32:40;;;;;;;7.20;6.00;;;9.60;99.90;;;;;;5081232;28;20815;-46
2022/02/09 05:35:08;;;;;;;10.57;7.13;;;9.60;99.90;;;;;;5080990;28;20438;-50
2022/02/09 05:37:36;;;;;;;9.73;6.07;;;9.60;99.90;;;;;;5081092;28;20491;-44
2022/02/09 05:40:02;;;;;;;7.00;5.03;;;9.60;99.90;;;;;;5081259;28;20447;-46
2022/02/09 05:42:31;;;;;;;7.43;4.80;;;9.60;99.90;;;;;;5081618;28;20482;-46
2022/02/09 05:45:04;;;;;;;7.70;5.47;;;9.60;99.90;;;;;;5080671;28;20462;-46
2022/02/09 05:48:07;;;;;;;7.90;5.10;;;9.60;99.90;;;;;;5081422;28;20447;-47
2022/02/09 05:50:37;;;;;;;9.23;5.63;;;9.70;99.90;;;;;;5080696;28;20460;-46
2022/02/09 05:53:13;;;;;;;6.77;3.60;;;9.70;99.90;;;;;;5080694;28;20491;-43
2022/02/09 05:55:51;;;;;;;7.37;4.83;;;9.60;99.90;;;;;;5080999;28;20480;-45
2022/02/09 05:58:36;;;;;;;11.43;4.43;;;9.60;99.90;;;;;;5081113;28;20437;-44
2022/02/09 06:01:05;;;;;;;4.97;4.00;;;9.70;99.90;;;;;;5080635;28;20484;-43
2022/02/09 06:03:32;;;;;;;7.70;4.87;;;9.60;99.90;;;;;;5081248;28;20478;-43
2022/02/09 06:05:59;;;;;;;6.50;4.40;;;9.60;99.90;;;;;;5080616;28;20446;-43
2022/02/09 06:08:27;;;;;;;5.40;4.13;;;9.60;99.90;;;;;;5081452;28;20438;-57
2022/02/09 06:11:10;;;;;;;7.03;3.97;;;9.60;99.90;;;;;;5081026;28;20453;-51
2022/02/09 06:21:52;;;;;;;7.17;4.23;;;9.60;99.90;;;;;;5081479;28;21026;-54
2022/02/09 06:24:20;;;;;;;9.40;4.00;;;9.60;99.90;;;;;;5081131;28;20466;-58
2022/02/09 06:26:47;;;;;;;5.63;3.63;;;9.60;99.90;;;;;;5079849;28;20522;-54
2022/02/09 06:29:14;;;;;;;5.50;3.90;;;9.60;99.90;;;;;;5079820;28;20528;-55
2022/02/09 06:31:43;;;;;;;8.00;3.73;;;9.60;99.90;;;;;;5080291;28;20753;-56
2022/02/09 06:34:13;;;;;;;7.97;5.30;;;9.60;99.90;;;;;;5080742;28;20478;-56
2022/02/09 06:36:43;;;;;;;10.67;4.77;;;9.70;99.90;;;;;;5080331;28;20826;-55
2022/02/09 06:39:11;;;;;;;10.40;5.13;;;9.60;99.90;;;;;;5080434;28;20519;-52
2022/02/09 06:41:41;;;;;;;7.20;3.90;;;9.60;99.90;;;;;;5080375;28;20445;-55
2022/02/09 06:44:08;;;;;;;6.00;4.07;;;9.60;99.90;;;;;;5080527;28;20454;-54
2022/02/09 06:46:37;;;;;;;4.60;3.27;;;9.60;99.90;;;;;;5079810;28;20474;-55
2022/02/09 06:49:06;;;;;;;5.60;3.47;;;9.60;99.90;;;;;;5080183;28;20515;-55
2022/02/09 06:51:35;;;;;;;5.87;3.80;;;9.60;99.90;;;;;;5079825;28;20555;-55
2022/02/09 06:54:04;;;;;;;5.80;3.40;;;9.60;99.90;;;;;;5080063;28;20523;-55
2022/02/09 06:56:58;;;;;;;5.07;3.70;;;9.60;99.90;;;;;;5080177;28;20543;-53
2022/02/09 06:59:31;;;;;;;5.50;3.40;;;9.60;99.90;;;;;;5079756;28;20463;-56
2022/02/09 07:02:02;;;;;;;5.50;3.60;;;9.60;99.90;;;;;;5079704;28;20504;-56
2022/02/09 07:04:29;;;;;;;3.50;3.10;;;9.70;99.90;;;;;;5079694;28;20473;-53
2022/02/09 07:06:56;;;;;;;7.20;4.33;;;9.60;99.90;;;;;;5079620;28;20454;-55
2022/02/09 07:09:24;;;;;;;6.20;3.53;;;9.70;99.90;;;;;;5079570;28;20482;-52
2022/02/09 07:11:50;;;;;;;6.70;4.00;;;9.70;99.90;;;;;;5079760;28;20507;-56
2022/02/09 07:14:22;;;;;;;6.63;4.10;;;9.70;99.90;;;;;;5079829;28;20546;-52
2022/02/09 07:16:51;;;;;;;7.30;4.00;;;9.70;99.90;;;;;;5079664;28;20478;-56
2022/02/09 07:19:18;;;;;;;6.50;4.10;;;9.70;99.90;;;;;;5079411;28;20470;-56
2022/02/09 07:21:45;;;;;;;8.63;5.43;;;9.70;99.90;;;;;;5080360;28;20442;-56
2022/02/09 07:24:15;;;;;;;4.50;3.60;;;9.70;99.90;;;;;;5082612;28;20478;-51
2022/02/09 07:26:48;;;;;;;6.10;3.67;;;9.80;99.90;;;;;;5082480;28;20523;-52
2022/02/09 07:29:17;;;;;;;5.33;4.17;;;9.80;99.90;;;;;;5080437;28;20439;-54
2022/02/09 07:31:45;;;;;;;11.50;3.73;;;9.80;99.90;;;;;;5079465;28;20488;-53
2022/02/09 07:34:14;;;;;;;7.10;4.60;;;9.80;99.90;;;;;;5078910;28;20435;-57
2022/02/09 07:36:45;;;;;;;5.57;4.10;;;9.80;99.90;;;;;;5079581;28;20544;-55
2022/02/09 07:39:15;;;;;;;8.80;4.23;;;9.80;99.90;;;;;;5078897;28;20431;-54
2022/02/09 07:41:44;;;;;;;5.10;3.47;;;9.90;99.90;;;;;;5078541;28;20468;-57
2022/02/09 07:44:28;;;;;;;4.97;3.33;;;9.90;99.90;;;;;;5078959;28;20483;-54
2022/02/09 07:47:06;;;;;;;10.50;4.50;;;9.90;99.90;;;;;;5078838;28;20470;-52
2022/02/09 07:49:53;;;;;;;4.10;3.33;;;9.90;99.90;;;;;;5078860;28;20539;-55
2022/02/09 07:52:25;;;;;;;4.43;3.70;;;10.00;99.90;;;;;;5078403;28;20533;-53
2022/02/09 07:54:54;;;;;;;6.47;4.70;;;10.00;99.90;;;;;;5078746;28;20433;-56
2022/02/09 07:57:21;;;;;;;7.17;4.00;;;10.00;99.90;;;;;;5078766;28;20454;-55
2022/02/09 07:59:50;;;;;;;4.27;3.13;;;10.00;99.90;;;;;;5079156;28;20462;-53
2022/02/09 08:02:17;;;;;;;5.77;4.10;;;10.00;99.90;;;;;;5079555;28;20487;-53
2022/02/09 08:04:45;;;;;;;5.53;4.17;;;9.90;99.90;;;;;;5078622;28;20474;-54
2022/02/09 08:07:13;;;;;;;3.80;3.40;;;9.90;99.90;;;;;;5078863;28;20447;-55
2022/02/09 08:09:42;;;;;;;3.50;3.00;;;10.00;99.90;;;;;;5078543;28;20967;-52
2022/02/09 08:12:32;;;;;;;3.70;3.00;;;10.00;99.90;;;;;;5078785;28;20470;-53
2022/02/09 08:29:03;;;;;;;5.37;2.30;;;10.10;99.90;;;;;;5078096;28;20434;-51
2022/02/09 08:34:26;;;;;;;3.17;2.60;;;10.00;99.90;;;;;;5019364;28;20432;-54
2022/02/09 08:36:55;;;;;;;5.20;2.80;;;10.10;99.90;;;;;;5065473;28;20478;-52
2022/02/09 08:39:22;;;;;;;3.70;3.07;;;10.20;99.90;;;;;;5077550;28;20447;-55
2022/02/09 08:41:49;;;;;;;3.23;2.93;;;10.20;99.90;;;;;;5078222;28;20461;-54
2022/02/09 08:44:17;;;;;;;4.07;2.70;;;10.20;99.90;;;;;;5077371;28;20974;-54
2022/02/09 08:46:47;;;;;;;5.53;3.23;;;10.20;99.90;;;;;;5078266;28;20443;-55
2022/02/09 08:49:14;;;;;;;4.10;3.27;;;10.30;99.90;;;;;;5077847;28;20549;-50
2022/02/09 08:51:41;;;;;;;4.40;3.47;;;10.20;99.90;;;;;;5077358;28;20454;-54
2022/02/09 08:54:11;;;;;;;6.53;3.23;;;10.20;99.90;;;;;;5077490;28;20467;-51
2022/02/09 08:56:38;;;;;;;5.10;3.60;;;10.30;99.90;;;;;;5077458;28;20451;-52
2022/02/09 08:59:07;;;;;;;3.80;2.40;;;10.30;99.90;;;;;;5076990;28;20470;-52
2022/02/09 09:01:36;;;;;;;4.10;3.70;;;10.30;99.90;;;;;;5077710;28;20443;-55
2022/02/09 09:04:12;;;;;;;5.87;3.60;;;10.30;99.90;;;;;;5076903;28;20962;-51
2022/02/09 09:06:42;;;;;;;6.37;3.23;;;10.30;99.90;;;;;;5077083;28;20482;-55
2022/02/09 09:09:37;;;;;;;5.73;3.47;;;10.30;99.90;;;;;;5077154;28;20447;-55
2022/02/09 09:18:14;;;;;;;6.50;3.40;;;10.40;99.90;;;;;;5077272;28;20412;-55
2022/02/09 10:02:12;;;;;;;4.97;2.77;;;10.70;99.90;;;;;;5076833;28;20932;-52
2022/02/09 10:32:47;;;;;;;4.77;3.10;;;10.30;99.90;;;;;;5080021;28;20521;-51
2022/02/09 10:35:25;;;;;;;3.10;2.20;;;10.40;99.90;;;;;;5080686;28;20743;-52
2022/02/09 10:37:53;;;;;;;3.00;2.20;;;10.40;99.90;;;;;;5080046;28;20448;-55
2022/02/09 10:40:33;;;;;;;4.70;2.50;;;10.50;99.90;;;;;;5080302;28;20533;-56
2022/02/09 10:43:02;;;;;;;3.90;2.77;;;10.50;99.90;;;;;;5080181;28;20470;-54
2022/02/09 10:45:33;;;;;;;7.60;2.77;;;10.40;99.90;;;;;;5079784;28;20483;-53
2022/02/09 10:48:02;;;;;;;7.50;2.57;;;10.40;99.90;;;;;;5081616;28;20454;-56
2022/02/09 10:50:31;;;;;;;2.57;1.90;;;10.50;99.90;;;;;;5083853;28;20516;-55
2022/02/09 10:53:00;;;;;;;2.17;1.97;;;10.50;99.90;;;;;;5082424;28;20446;-55
2022/02/09 10:55:36;;;;;;;3.00;2.17;;;10.50;99.90;;;;;;5081258;28;20446;-53
2022/02/09 10:58:04;;;;;;;3.27;2.87;;;10.50;99.90;;;;;;5080269;28;20478;-56
2022/02/09 11:00:31;;;;;;;2.00;1.57;;;10.60;99.90;;;;;;5079601;28;20439;-52
2022/02/09 11:02:58;;;;;;;3.60;2.10;;;10.50;99.90;;;;;;5079507;28;20494;-54
2022/02/09 11:05:27;;;;;;;2.80;2.10;;;10.50;99.90;;;;;;5079588;28;20462;-57
2022/02/09 11:07:55;;;;;;;4.03;2.10;;;10.50;99.90;;;;;;5079897;28;20450;-55
2022/02/09 11:10:23;;;;;;;4.07;2.23;;;10.50;99.90;;;;;;5080087;28;20741;-56
2022/02/09 11:12:52;;;;;;;1.73;1.57;;;10.50;99.90;;;;;;5079778;28;20465;-55
2022/02/09 11:15:20;;;;;;;2.40;1.70;;;10.60;99.90;;;;;;5079554;28;20455;-56
2022/02/09 11:17:48;;;;;;;2.20;1.67;;;10.60;99.90;;;;;;5079604;28;20492;-55
2022/02/09 11:20:15;;;;;;;2.73;2.13;;;10.60;99.90;;;;;;5080353;28;20447;-50
2022/02/09 11:22:46;;;;;;;1.87;1.73;;;10.60;99.90;;;;;;5079275;28;20888;-56
2022/02/09 11:25:18;;;;;;;3.20;1.57;;;10.70;99.90;;;;;;5079388;28;20447;-54
2022/02/09 11:27:56;;;;;;;1.40;1.23;;;10.70;99.90;;;;;;5079516;28;20470;-54
2022/02/09 11:30:31;;;;;;;2.63;1.30;;;10.70;99.90;;;;;;5079695;28;20423;-55
2022/02/09 11:33:21;;;;;;;3.07;1.67;;;10.60;99.90;;;;;;5079280;28;20883;-53
2022/02/09 11:36:18;;;;;;;4.43;1.53;;;10.60;99.90;;;;;;5079103;28;20872;-55
2022/02/09 11:38:51;;;;;;;2.47;1.50;;;10.70;99.90;;;;;;5078678;28;20526;-52
2022/02/09 11:41:23;;;;;;;1.70;1.57;;;10.80;99.90;;;;;;5081604;28;20949;-50
2022/02/09 12:01:14;;;;;;;3.73;2.37;;;10.90;99.90;;;;;;5078765;28;20410;-54
2022/02/09 12:10:18;;;;;;;2.40;1.60;;;10.80;99.90;;;;;;5078123;28;20439;-56
2022/02/09 12:12:56;;;;;;;2.27;1.50;;;10.90;99.90;;;;;;5078551;28;20454;-56
2022/02/09 12:19:09;;;;;;;2.30;2.10;;;10.70;99.90;;;;;;5078778;28;20415;-55
2022/02/09 12:21:43;;;;;;;3.00;2.30;;;10.70;99.90;;;;;;5064280;28;20471;-57
2022/02/09 12:24:20;;;;;;;2.70;2.00;;;10.80;99.90;;;;;;5077986;28;20503;-54
2022/02/09 12:26:56;;;;;;;3.17;2.23;;;10.70;99.90;;;;;;5077447;28;20478;-50
2022/02/09 12:29:23;;;;;;;1.97;1.77;;;10.70;99.90;;;;;;5078498;28;20454;-55
2022/02/09 12:31:50;;;;;;;2.93;1.73;;;10.70;99.90;;;;;;5078312;28;20779;-56
2022/02/09 12:34:23;;;;;;;2.87;1.87;;;10.70;99.90;;;;;;5078384;28;20462;-56
2022/02/09 12:36:50;;;;;;;3.30;2.00;;;10.70;99.90;;;;;;5077438;28;20993;-56
2022/02/09 12:39:18;;;;;;;1.90;1.70;;;10.70;99.90;;;;;;5079637;28;20506;-57
2022/02/09 12:41:45;;;;;;;1.80;1.67;;;10.60;99.90;;;;;;5079561;28;20789;-57
2022/02/09 12:44:19;;;;;;;2.40;2.03;;;10.40;99.90;;;;;;5079998;28;20462;-58
2022/02/09 12:46:46;;;;;;;2.50;2.30;;;10.30;99.90;;;;;;5079995;28;20484;-56
2022/02/09 12:49:14;;;;;;;3.47;1.70;;;10.30;99.90;;;;;;5079610;28;20897;-53
2022/02/09 12:51:43;;;;;;;1.97;1.50;;;10.30;99.90;;;;;;5079385;28;20477;-56
2022/02/09 12:54:11;;;;;;;3.50;1.70;;;10.20;99.90;;;;;;5079720;28;20433;-58
2022/02/09 12:56:41;;;;;;;2.33;1.90;;;10.10;99.90;;;;;;5080300;28;20473;-59
2022/02/09 12:59:10;;;;;;;2.00;1.80;;;10.10;99.90;;;;;;5080009;28;20509;-58
2022/02/09 13:01:42;;;;;;;3.30;2.20;;;10.10;99.90;;;;;;5079772;28;20530;-60
2022/02/09 13:04:10;;;;;;;3.00;1.67;;;10.10;99.90;;;;;;5079347;28;20458;-55
2022/02/09 13:06:37;;;;;;;1.90;1.60;;;10.10;99.90;;;;;;5079620;28;20453;-59
2022/02/09 13:09:04;;;;;;;2.77;1.90;;;10.10;99.90;;;;;;5079411;28;20442;-59
2022/02/09 13:11:34;;;;;;;2.50;2.00;;;10.20;99.90;;;;;;5079527;28;20523;-57
2022/02/09 13:14:08;;;;;;;2.50;2.30;;;10.20;99.90;;;;;;5079970;28;20449;-59
2022/02/09 13:16:53;;;;;;;2.10;1.70;;;10.30;99.90;;;;;;5080586;28;20542;-59
2022/02/09 13:20:07;;;;;;;2.53;2.13;;;10.40;99.90;;;;;;5080208;28;20439;-60
2022/02/09 13:23:12;;;;;;;2.33;1.77;;;10.40;99.90;;;;;;5079873;28;20525;-61
2022/02/09 13:25:53;;;;;;;2.50;1.87;;;10.40;99.90;;;;;;5080206;28;20460;-59
2022/02/09 14:03:46;;;;;;;2.20;2.00;;;10.60;99.90;;;;;;5020683;28;20448;-57
2022/02/09 14:14:58;;;;;;;2.40;1.47;;;10.40;99.90;;;;;;5083457;28;20435;-58
2022/02/09 14:32:17;;;;;;;1.77;1.60;;;10.40;99.90;;;;;;5056894;28;20435;-55
2022/02/09 14:48:48;;;;;;;2.17;1.60;;;10.30;99.90;;;;;;5082936;28;20565;-57
2022/02/09 14:54:01;;;;;;;2.03;1.80;;;10.30;99.90;;;;;;5071602;28;20447;-57
2022/02/09 14:56:41;;;;;;;2.73;1.77;;;10.30;99.90;;;;;;5081431;28;20521;-58
2022/02/09 14:59:10;;;;;;;2.87;2.10;;;10.30;99.90;;;;;;5081613;28;20480;-62
2022/02/09 15:01:45;;;;;;;2.80;2.00;;;10.20;99.90;;;;;;5082032;28;20453;-52
2022/02/09 15:04:29;;;;;;;3.30;1.60;;;10.20;99.90;;;;;;5082707;28;20557;-53
2022/02/09 15:07:15;;;;;;;1.77;1.60;;;10.10;99.90;;;;;;5081496;28;20427;-60
2022/02/09 15:09:48;;;;;;;3.40;1.50;;;10.10;99.90;;;;;;5081582;28;20945;-55
2022/02/09 15:12:21;;;;;;;3.07;1.80;;;10.10;99.90;;;;;;5081353;28;20449;-55
2022/02/09 15:15:05;;;;;;;1.93;1.73;;;10.00;99.90;;;;;;5081317;28;20467;-58
2022/02/09 15:17:59;;;;;;;3.00;1.93;;;10.00;99.90;;;;;;5082110;28;20899;-55
2022/02/09 15:20:43;;;;;;;2.80;2.20;;;9.90;99.90;;;;;;5081594;28;20454;-56
2022/02/09 15:23:11;;;;;;;3.53;2.40;;;9.90;99.90;;;;;;5081120;28;20464;-58
2022/02/09 15:25:40;;;;;;;2.90;2.13;;;9.80;99.90;;;;;;5080986;28;20483;-57
2022/02/09 15:28:07;;;;;;;3.60;2.27;;;9.70;99.90;;;;;;5080897;28;20889;-57
2022/02/09 15:30:43;;;;;;;3.20;2.17;;;9.70;99.90;;;;;;5080967;28;20457;-58
2022/02/09 15:33:13;;;;;;;2.00;1.63;;;9.60;99.90;;;;;;5080906;28;20445;-56
2022/02/09 15:35:42;;;;;;;3.10;2.30;;;9.60;99.90;;;;;;5080590;28;20427;-57
2022/02/09 15:38:13;;;;;;;3.00;1.90;;;9.50;99.90;;;;;;5080512;28;20548;-58
2022/02/09 15:40:51;;;;;;;2.27;1.97;;;9.50;99.90;;;;;;5080498;28;20449;-58
2022/02/09 15:43:40;;;;;;;3.50;2.20;;;9.60;99.90;;;;;;5080552;28;20909;-59
2022/02/09 15:57:19;;;;;;;5.37;2.83;;;9.50;99.90;;;;;;5080356;28;20464;-55
2022/02/09 16:05:36;;;;;;;3.70;2.80;;;9.60;99.90;;;;;;5079888;28;20500;-57
2022/02/09 16:05:44;;;;;;;3.07;2.43;;;9.50;99.90;;;;;;5023091;28;20473;-58
2022/02/09 16:08:32;;;;;;;2.53;2.20;;;9.50;99.90;;;;;;5080472;28;20457;-57
2022/02/09 16:11:18;;;;;;;3.70;3.07;;;9.50;99.90;;;;;;5080056;28;20434;-57
2022/02/09 16:16:55;;;;;;;4.80;2.90;;;9.60;99.90;;;;;;5079821;28;20465;-57
2022/02/09 16:19:49;;;;;;;2.53;2.33;;;9.60;99.90;;;;;;5079786;28;20483;-55
2022/02/09 16:22:24;;;;;;;3.73;3.00;;;9.60;99.90;;;;;;5080514;28;20427;-57
2022/02/09 16:25:19;;;;;;;3.00;2.40;;;9.70;99.90;;;;;;5081083;28;20489;-56
2022/02/09 16:33:22;;;;;;;4.07;3.30;;;9.70;99.90;;;;;;5079760;28;20417;-59
2022/02/09 16:39:01;;;;;;;3.57;2.80;;;9.80;99.90;;;;;;5079282;28;20536;-57
2022/02/09 16:44:30;;;;;;;3.70;2.60;;;9.80;99.90;;;;;;5079490;28;20493;-57
2022/02/09 16:46:58;;;;;;;4.17;3.77;;;9.80;99.90;;;;;;5079810;28;20435;-55
2022/02/09 16:49:32;;;;;;;2.63;2.43;;;9.80;99.90;;;;;;5079142;28;20948;-58
2022/02/09 16:52:04;;;;;;;3.07;2.77;;;9.80;99.90;;;;;;5079492;28;20782;-58
2022/02/09 16:54:43;;;;;;;2.97;2.63;;;9.80;99.90;;;;;;5079365;28;20513;-59
2022/02/09 17:08:39;;;;;;;3.67;2.93;;;9.80;99.90;;;;;;5079575;28;20403;-52
2022/02/09 17:19:25;;;;;;;3.90;2.60;;;9.60;99.90;;;;;;5054884;28;20466;-57
2022/02/09 17:21:52;;;;;;;3.03;2.67;;;9.60;99.90;;;;;;5086011;28;20461;-59
2022/02/09 17:24:18;;;;;;;1.73;1.63;;;9.60;99.90;;;;;;5085909;28;20523;-57
2022/02/09 17:26:47;;;;;;;3.30;2.80;;;9.60;99.90;;;;;;5084488;28;20451;-60
2022/02/09 17:29:19;;;;;;;2.20;2.00;;;9.60;99.90;;;;;;5081114;28;20929;-56
2022/02/09 17:31:55;;;;;;;2.70;2.33;;;9.60;99.90;;;;;;5081073;28;20446;-60
2022/02/09 17:53:48;;;;;;;3.70;2.87;;;9.80;99.90;;;;;;5081351;28;20426;-57
2022/02/09 17:56:21;;;;;;;4.43;2.53;;;9.80;99.90;;;;;;5081336;28;20423;-62
2022/02/09 17:58:51;;;;;;;3.30;2.37;;;9.70;99.90;;;;;;5081179;28;20876;-60
2022/02/09 18:01:20;;;;;;;6.33;3.43;;;9.70;99.90;;;;;;5081147;28;20478;-56
2022/02/09 18:03:47;;;;;;;4.10;2.80;;;9.70;99.90;;;;;;5080909;28;20465;-58
2022/02/09 18:06:19;;;;;;;9.60;4.20;;;9.70;99.90;;;;;;5081222;28;20492;-55
2022/02/09 18:08:53;;;;;;;4.60;3.33;;;9.60;99.90;;;;;;5081458;28;20454;-57
2022/02/09 18:28:49;;;;;;;4.50;3.43;;;9.60;99.90;;;;;;5016224;28;20441;-58
2022/02/09 18:31:10;;;;;;;6.80;3.30;;;9.60;99.90;;;;;;5015755;28;20465;-58
2022/02/09 18:33:51;;;;;;;3.33;3.03;;;9.60;99.90;;;;;;5060719;28;20512;-57
2022/02/09 18:40:03;;;;;;;7.53;4.03;;;9.60;99.90;;;;;;5077735;28;20537;-57
2022/02/09 18:44:59;;;;;;;4.97;3.27;;;9.60;99.90;;;;;;5077229;28;20546;-55
2022/02/09 18:47:47;;;;;;;4.07;3.13;;;9.60;99.90;;;;;;5077408;28;20434;-58
2022/02/09 19:04:10;;;;;;;4.17;2.90;;;9.70;99.90;;;;;;5040806;28;20431;-59
2022/02/09 19:06:58;;;;;;;4.87;4.27;;;9.70;99.90;;;;;;5077002;28;20486;-58
2022/02/09 19:15:11;;;;;;;6.27;4.50;;;9.70;99.90;;;;;;5076691;28;20430;-56
2022/02/09 19:17:46;;;;;;;7.00;5.03;;;9.80;99.90;;;;;;5076894;28;20456;-58
2022/02/09 19:20:23;;;;;;;6.37;3.83;;;9.80;99.90;;;;;;5076639;28;20688;-54
2022/02/09 19:31:36;;;;;;;4.60;3.40;;;9.80;99.90;;;;;;5028940;27;20566;-55
2022/02/09 19:43:32;;;;;;;4.87;3.97;;;9.90;99.90;;;;;;4987691;28;20477;-59
2022/02/09 19:48:19;;;;;;;3.80;3.40;;;9.90;99.90;;;;;;5028745;28;20510;-56
2022/02/09 19:50:51;;;;;;;3.43;3.13;;;9.80;99.90;;;;;;5028628;28;20549;-57
2022/02/09 19:53:30;;;;;;;6.13;3.23;;;9.80;99.90;;;;;;5028905;28;20521;-59
2022/02/09 19:56:04;;;;;;;3.80;3.40;;;9.80;99.90;;;;;;5028588;28;20558;-56
2022/02/09 19:58:40;;;;;;;6.83;3.90;;;9.80;99.90;;;;;;5028725;28;20461;-58
2022/02/09 20:01:08;;;;;;;4.37;3.47;;;9.80;99.90;;;;;;5028723;28;20784;-59
2022/02/09 20:03:37;;;;;;;4.40;3.63;;;9.80;99.90;;;;;;5028597;28;20450;-57
2022/02/09 20:06:07;;;;;;;7.20;4.17;;;9.80;99.90;;;;;;5028623;28;20475;-54
2022/02/09 20:08:36;;;;;;;4.67;3.60;;;9.80;99.90;;;;;;5028269;28;20452;-58
2022/02/09 20:11:02;;;;;;;4.63;3.40;;;9.80;99.90;;;;;;5028228;28;20499;-55
2022/02/09 20:13:30;;;;;;;4.17;3.50;;;9.80;99.90;;;;;;5028134;28;20774;-57
2022/02/09 20:15:57;;;;;;;3.53;3.20;;;9.80;99.90;;;;;;5028269;28;20477;-59
2022/02/09 20:18:24;;;;;;;4.10;3.60;;;9.80;99.90;;;;;;5028501;28;20467;-57
2022/02/09 20:20:54;;;;;;;5.27;4.27;;;9.90;99.90;;;;;;5028201;28;20445;-59
2022/02/09 20:23:21;;;;;;;7.33;4.63;;;9.90;99.90;;;;;;5028092;28;20822;-56
2022/02/09 20:25:48;;;;;;;5.20;3.90;;;9.90;99.90;;;;;;5027611;28;20974;-57
2022/02/09 20:28:16;;;;;;;5.17;3.97;;;9.90;99.90;;;;;;5027778;28;20425;-59
2022/02/09 20:30:47;;;;;;;7.20;4.63;;;9.90;99.90;;;;;;5027970;28;20488;-60
2022/02/09 20:33:15;;;;;;;5.47;3.83;;;9.90;99.90;;;;;;5028073;28;20437;-60
2022/02/09 20:35:42;;;;;;;7.10;4.20;;;9.90;99.90;;;;;;5027927;28;20726;-59
2022/02/09 20:38:16;;;;;;;4.70;4.27;;;9.90;99.90;;;;;;5027971;28;20901;-60
2022/02/09 20:40:49;;;;;;;8.13;3.97;;;9.90;99.90;;;;;;5026079;28;20499;-57
2022/02/09 20:43:19;;;;;;;5.30;3.90;;;9.90;99.90;;;;;;5014854;28;20444;-60
2022/02/09 20:45:49;;;;;;;5.53;3.47;;;9.90;99.90;;;;;;5014580;28;20445;-61
2022/02/09 20:48:22;;;;;;;5.20;4.43;;;9.80;99.90;;;;;;5015699;28;20540;-50
2022/02/09 20:50:48;;;;;;;3.10;2.80;;;9.80;99.90;;;;;;5014956;28;20470;-53
2022/02/09 20:53:18;;;;;;;4.80;4.03;;;9.80;99.90;;;;;;5014533;28;20446;-54
2022/02/09 20:55:46;;;;;;;6.87;3.57;;;9.80;99.90;;;;;;5014541;28;20511;-54
2022/02/09 20:58:13;;;;;;;3.70;3.20;;;9.80;99.90;;;;;;5014419;28;20468;-54
2022/02/09 21:00:44;;;;;;;6.40;4.57;;;9.80;99.90;;;;;;5014953;28;20442;-54
2022/02/09 21:03:27;;;;;;;5.17;3.87;;;9.80;99.90;;;;;;5014189;28;20908;-48
2022/02/09 21:06:07;;;;;;;5.70;3.30;;;9.80;99.90;;;;;;5014373;28;20453;-52
2022/02/09 21:08:48;;;;;;;4.53;3.73;;;9.80;99.90;;;;;;5015169;28;20463;-55
2022/02/09 21:11:20;;;;;;;5.33;4.10;;;9.80;99.90;;;;;;5014126;28;20472;-52
2022/02/09 21:13:56;;;;;;;5.60;4.00;;;9.80;99.90;;;;;;5013848;28;20947;-54
2022/02/09 21:16:37;;;;;;;7.27;4.20;;;9.80;99.90;;;;;;5014141;28;20487;-58
2022/02/09 21:22:32;;;;;;;5.33;4.00;;;9.80;99.90;;;;;;5013857;28;20471;-56
2022/02/09 21:41:35;;;;;;;6.40;4.33;;;9.80;99.90;;;;;;5014063;28;20476;-57
2022/02/09 21:42:41;;;;;;;6.07;4.50;;;9.80;99.90;;;;;;5013714;28;20456;-59
2022/02/09 21:53:49;;;;;;;8.00;4.80;;;9.70;99.90;;;;;;5012687;28;20456;-53
2022/02/09 21:56:21;;;;;;;10.47;5.10;;;9.70;99.90;;;;;;5013540;28;20437;-53
2022/02/09 21:59:01;;;;;;;9.80;5.67;;;9.70;99.90;;;;;;5013646;28;20540;-54
2022/02/09 22:01:37;;;;;;;6.83;5.20;;;9.70;99.90;;;;;;5013871;28;20522;-54
2022/02/09 22:07:09;;;;;;;6.87;4.87;;;9.70;99.90;;;;;;5013461;28;20420;-54
2022/02/09 22:20:55;;;;;;;6.53;4.17;;;9.70;99.90;;;;;;5013092;28;20425;-53
2022/02/09 22:24:01;;;;;;;7.47;5.23;;;9.80;99.90;;;;;;5013165;28;20473;-51
2022/02/09 22:26:40;;;;;;;7.17;4.70;;;9.80;99.90;;;;;;5013741;28;20464;-55
2022/02/09 22:29:15;;;;;;;7.70;5.63;;;9.70;99.90;;;;;;5012891;28;20762;-52
2022/02/09 22:31:57;;;;;;;7.30;5.50;;;9.70;99.90;;;;;;5012936;28;20572;-55
2022/02/09 22:45:38;;;;;;;8.70;5.50;;;9.80;99.90;;;;;;5012821;28;20467;-56